createdAt,value
2022-08-23T00:01:46.707Z,3.50
2022-08-23T00:04:19.693Z,3.58
2022-08-23T00:06:47.647Z,3.88
2022-08-23T00:09:14.245Z,3.83
2022-08-23T00:11:47.127Z,3.70
2022-08-23T00:14:15.797Z,3.92
2022-08-23T00:16:42.471Z,3.92
2022-08-23T00:19:10.699Z,3.70
2022-08-23T00:21:38.352Z,3.40
2022-08-23T00:24:10.037Z,3.60
2022-08-23T00:27:07.598Z,3.63
2022-08-23T00:29:39.424Z,3.60
2022-08-23T00:32:11.884Z,3.33
2022-08-23T00:34:38.887Z,3.50
2022-08-23T00:37:06.456Z,3.33
2022-08-23T00:39:33.301Z,3.77
2022-08-23T00:42:26.971Z,3.10
2022-08-23T00:45:12.828Z,3.38
2022-08-23T00:47:40.395Z,3.00
2022-08-23T00:50:23.765Z,3.30
2022-08-23T00:53:07.740Z,3.03
2022-08-23T00:55:35.342Z,3.00
2022-08-23T00:58:02.434Z,3.73
2022-08-23T01:00:29.890Z,3.30
2022-08-23T01:02:57.861Z,2.90
2022-08-23T01:05:34.778Z,3.43
2022-08-23T01:08:01.777Z,3.33
2022-08-23T01:10:35.795Z,3.30
2022-08-23T01:13:27.295Z,3.50
2022-08-23T01:16:01.300Z,3.40
2022-08-23T01:18:29.470Z,2.97
2022-08-23T01:21:02.900Z,3.37
2022-08-23T01:23:51.598Z,3.20
2022-08-23T01:26:21.879Z,3.27
2022-08-23T01:28:48.842Z,2.90
2022-08-23T01:31:16.537Z,2.97
2022-08-23T01:33:43.696Z,3.17
2022-08-23T01:36:12.596Z,3.10
2022-08-23T01:38:39.412Z,3.17
2022-08-23T01:41:09.768Z,3.10
2022-08-23T01:43:36.463Z,3.40
2022-08-23T01:46:17.945Z,3.37
2022-08-23T01:48:46.351Z,3.60
2022-08-23T01:51:16.560Z,3.23
2022-08-23T01:53:43.643Z,3.97
2022-08-23T01:56:10.555Z,3.33
2022-08-23T01:58:37.542Z,3.37
2022-08-23T02:01:05.023Z,3.47
2022-08-23T02:03:32.979Z,3.80
2022-08-23T02:06:00.189Z,3.53
2022-08-23T02:08:45.581Z,3.87
2022-08-23T02:11:15.131Z,3.30
2022-08-23T02:13:43.215Z,3.20
2022-08-23T02:16:10.479Z,3.03
2022-08-23T02:18:41.591Z,3.53
2022-08-23T02:21:09.743Z,3.17
2022-08-23T02:23:36.282Z,4.13
2022-08-23T02:26:02.723Z,3.60
2022-08-23T02:28:29.122Z,3.40
2022-08-23T02:30:55.499Z,3.30
2022-08-23T02:33:22.202Z,3.20
2022-08-23T02:35:50.087Z,3.47
2022-08-23T02:38:18.104Z,3.30
2022-08-23T02:40:44.525Z,3.40
2022-08-23T02:43:11.177Z,3.40
2022-08-23T02:45:37.735Z,3.43
2022-08-23T02:48:05.137Z,3.70
2022-08-23T02:50:32.178Z,3.47
2022-08-23T02:52:59.009Z,3.20
2022-08-23T02:55:25.556Z,3.57
2022-08-23T02:57:52.161Z,3.70
2022-08-23T03:00:19.713Z,3.07
2022-08-23T03:02:46.677Z,3.80
2022-08-23T03:05:14.618Z,3.90
2022-08-23T03:07:41.596Z,3.57
2022-08-23T03:10:09.442Z,3.57
2022-08-23T03:12:36.369Z,3.50
2022-08-23T03:15:03.599Z,3.10
2022-08-23T03:17:32.437Z,3.77
2022-08-23T03:19:58.903Z,3.50
2022-08-23T03:22:25.331Z,3.57
2022-08-23T03:24:51.962Z,3.50
2022-08-23T03:27:18.402Z,3.40
2022-08-23T03:29:44.978Z,3.10
2022-08-23T03:32:11.456Z,3.43
2022-08-23T03:34:42.012Z,3.47
2022-08-23T03:37:08.596Z,3.43
2022-08-23T03:39:35.097Z,3.33
2022-08-23T03:42:01.780Z,3.33
2022-08-23T03:44:28.416Z,3.30
2022-08-23T03:46:54.835Z,3.70
2022-08-23T03:49:21.311Z,3.40
2022-08-23T03:51:47.738Z,3.33
2022-08-23T03:54:14.226Z,3.53
2022-08-23T03:57:00.901Z,3.13
2022-08-23T03:59:28.646Z,3.70
2022-08-23T04:01:55.602Z,3.70
2022-08-23T04:04:22.659Z,3.40
2022-08-23T04:06:49.227Z,3.60
2022-08-23T04:09:16.735Z,4.00
2022-08-23T04:11:44.281Z,3.50
2022-08-23T04:14:13.165Z,3.40
2022-08-23T04:16:40.556Z,3.80
2022-08-23T04:19:09.631Z,3.90
2022-08-23T04:21:37.983Z,3.67
2022-08-23T04:24:05.109Z,3.57
2022-08-23T04:26:32.988Z,3.73
2022-08-23T04:29:00.146Z,4.07
2022-08-23T04:31:27.149Z,3.90
2022-08-23T04:33:56.381Z,3.50
2022-08-23T04:36:23.697Z,3.93
2022-08-23T04:38:50.530Z,4.10
2022-08-23T04:41:37.026Z,4.10
2022-08-23T04:44:03.769Z,3.20
2022-08-23T04:46:30.259Z,4.23
2022-08-23T04:48:56.751Z,3.90
2022-08-23T04:51:23.235Z,3.90
2022-08-23T04:53:49.594Z,3.40
2022-08-23T04:56:16.028Z,3.77
2022-08-23T04:58:42.615Z,3.50
2022-08-23T05:01:10.750Z,3.70
2022-08-23T05:03:37.818Z,3.90
2022-08-23T05:06:05.120Z,4.10
2022-08-23T05:08:32.295Z,3.77
2022-08-23T05:11:07.705Z,4.20
2022-08-23T05:13:37.279Z,4.20
2022-08-23T05:16:05.204Z,3.70
2022-08-23T05:18:32.759Z,4.20
2022-08-23T05:21:00.206Z,4.10
2022-08-23T05:23:32.348Z,4.23
2022-08-23T05:25:59.654Z,3.60
2022-08-23T05:28:29.791Z,3.63
2022-08-23T05:30:58.640Z,4.10
2022-08-23T05:33:27.808Z,3.60
2022-08-23T05:35:54.863Z,3.87
2022-08-23T05:38:22.235Z,4.57
2022-08-23T05:40:50.399Z,4.07
2022-08-23T05:43:22.356Z,4.10
2022-08-23T05:45:48.999Z,3.83
2022-08-23T05:48:15.739Z,4.23
2022-08-23T05:50:44.808Z,4.20
2022-08-23T05:53:11.191Z,4.13
2022-08-23T05:55:38.166Z,3.60
2022-08-23T05:58:04.694Z,3.43
2022-08-23T06:00:38.093Z,3.77
2022-08-23T06:03:07.502Z,3.80
2022-08-23T06:05:34.087Z,3.90
2022-08-23T06:08:00.802Z,3.40
2022-08-23T06:10:27.520Z,3.27
2022-08-23T06:12:54.059Z,3.57
2022-08-23T06:15:20.637Z,3.50
2022-08-23T06:17:47.151Z,3.10
2022-08-23T06:20:15.734Z,3.40
2022-08-23T06:22:42.232Z,3.30
2022-08-23T06:25:09.794Z,3.07
2022-08-23T06:27:36.444Z,3.20
2022-08-23T06:30:02.916Z,3.50
2022-08-23T06:32:29.564Z,3.13
2022-08-23T06:35:38.344Z,2.83
2022-08-23T06:37:42.529Z,3.53
2022-08-23T06:40:09.404Z,3.20
2022-08-23T06:42:38.927Z,3.07
2022-08-23T06:45:06.415Z,2.97
2022-08-23T06:47:33.341Z,3.07
2022-08-23T06:49:59.738Z,3.00
2022-08-23T06:52:28.268Z,2.90
2022-08-23T06:54:55.388Z,3.03
2022-08-23T06:57:21.847Z,3.23
2022-08-23T06:59:49.790Z,2.30
2022-08-23T07:02:16.436Z,2.60
2022-08-23T07:04:43.035Z,2.47
2022-08-23T07:07:11.969Z,2.30
2022-08-23T07:09:40.834Z,2.60
2022-08-23T07:12:07.648Z,2.53
2022-08-23T07:14:34.898Z,2.23
2022-08-23T07:17:03.597Z,2.90
2022-08-23T07:19:33.885Z,2.33
2022-08-23T07:22:01.044Z,2.10
2022-08-23T07:24:32.905Z,2.57
2022-08-23T07:27:01.534Z,2.53
2022-08-23T07:29:29.827Z,2.40
2022-08-23T07:31:57.246Z,2.43
2022-08-23T07:34:24.869Z,2.13
2022-08-23T07:36:52.610Z,2.00
2022-08-23T07:39:20.741Z,2.20
2022-08-23T07:41:47.397Z,1.80
2022-08-23T07:44:18.262Z,2.05
2022-08-23T07:46:46.501Z,1.85
2022-08-23T07:49:14.503Z,2.10
2022-08-23T07:51:45.486Z,2.17
2022-08-23T07:54:12.843Z,1.98
2022-08-23T07:56:40.454Z,2.25
2022-08-23T07:59:08.454Z,2.28
2022-08-23T08:01:35.515Z,2.28
2022-08-23T08:04:04.671Z,1.95
2022-08-23T08:06:35.117Z,2.13
2022-08-23T08:09:03.436Z,2.08
2022-08-23T08:11:35.176Z,2.15
2022-08-23T08:14:06.028Z,2.10
2022-08-23T08:16:35.852Z,2.45
2022-08-23T08:19:04.456Z,2.00
2022-08-23T08:21:34.788Z,2.30
2022-08-23T08:24:01.955Z,2.03
2022-08-23T08:26:29.042Z,2.40
2022-08-23T08:28:58.707Z,2.42
2022-08-23T08:31:27.410Z,2.15
2022-08-23T08:33:54.341Z,2.42
2022-08-23T08:36:31.531Z,2.42
2022-08-23T08:39:00.740Z,2.17
2022-08-23T08:41:48.544Z,2.50
2022-08-23T08:44:37.073Z,2.22
2022-08-23T08:47:15.682Z,2.70
2022-08-23T08:49:56.061Z,2.88
2022-08-23T08:52:26.671Z,2.28
2022-08-23T08:55:10.829Z,2.45
2022-08-23T08:57:46.241Z,2.58
2022-08-23T09:00:17.997Z,2.75
2022-08-23T09:02:45.296Z,2.80
2022-08-23T09:05:19.291Z,2.33
2022-08-23T09:08:16.770Z,3.22
2022-08-23T09:11:06.563Z,2.83
2022-08-23T09:13:57.097Z,2.67
2022-08-23T09:16:39.056Z,2.78
2022-08-23T09:19:06.437Z,2.75
2022-08-23T09:21:44.063Z,3.30
2022-08-23T09:24:10.672Z,3.00
2022-08-23T09:26:37.805Z,3.40
2022-08-23T09:29:26.739Z,2.80
2022-08-23T09:31:58.244Z,3.03
2022-08-23T09:34:31.045Z,2.95
2022-08-23T09:37:20.019Z,2.80
2022-08-23T09:40:11.124Z,3.10
2022-08-23T09:42:39.675Z,2.83
2022-08-23T09:45:24.680Z,2.90
2022-08-23T09:47:51.246Z,3.15
2022-08-23T09:50:17.580Z,2.83
2022-08-23T09:52:45.039Z,2.58
2022-08-23T09:55:36.935Z,2.80
2022-08-23T09:58:06.695Z,3.10
2022-08-23T10:00:36.162Z,3.42
2022-08-23T10:03:25.934Z,2.80
2022-08-23T10:05:56.282Z,2.67
2022-08-23T10:08:37.517Z,3.17
2022-08-23T10:11:21.827Z,3.00
2022-08-23T10:13:48.301Z,2.95
2022-08-23T10:16:34.224Z,3.25
2022-08-23T10:19:23.953Z,2.95
2022-08-23T10:22:15.688Z,3.03
2022-08-23T10:24:45.826Z,3.03
2022-08-23T10:27:49.647Z,2.88
2022-08-23T10:30:38.706Z,3.28
2022-08-23T10:33:26.682Z,2.97
2022-08-23T10:36:06.641Z,2.88
2022-08-23T10:38:50.983Z,3.17
2022-08-23T10:41:43.410Z,2.65
2022-08-23T10:44:35.270Z,3.20
2022-08-23T10:47:14.715Z,3.03
2022-08-23T10:49:42.707Z,3.30
2022-08-23T10:52:15.278Z,3.45
2022-08-23T10:54:59.441Z,3.00
2022-08-23T10:57:47.811Z,3.50
2022-08-23T11:00:25.537Z,3.17
2022-08-23T11:03:13.402Z,2.70
2022-08-23T11:05:40.753Z,3.20
2022-08-23T11:08:30.359Z,3.17
2022-08-23T11:10:57.169Z,3.00
2022-08-23T11:13:29.591Z,3.05
2022-08-23T11:16:15.197Z,3.50
2022-08-23T11:18:49.930Z,3.10
2022-08-23T11:21:19.269Z,3.13
2022-08-23T11:24:10.796Z,2.95
2022-08-23T11:26:37.951Z,3.20
2022-08-23T11:29:07.124Z,2.97
2022-08-23T11:31:42.797Z,2.85
2022-08-23T11:34:28.972Z,2.80
2022-08-23T11:37:18.336Z,3.28
2022-08-23T11:40:00.236Z,3.13
2022-08-23T11:42:50.073Z,2.97
2022-08-23T11:45:35.778Z,3.10
2022-08-23T11:48:23.230Z,3.47
2022-08-23T11:51:17.365Z,3.25
2022-08-23T11:53:49.488Z,2.92
2022-08-23T11:57:03.672Z,2.95
2022-08-23T12:00:12.042Z,3.05
2022-08-23T12:02:38.622Z,2.15
2022-08-23T12:05:23.451Z,2.10
2022-08-23T12:08:02.615Z,2.17
2022-08-23T12:10:41.422Z,2.60
2022-08-23T12:13:23.134Z,2.88
2022-08-23T12:16:16.410Z,2.97
2022-08-23T12:18:53.399Z,2.70
2022-08-23T12:21:42.115Z,2.70
2022-08-23T12:24:17.784Z,2.70
2022-08-23T12:26:47.218Z,2.97
2022-08-23T12:29:33.453Z,2.25
2022-08-23T12:32:34.538Z,2.38
2022-08-23T12:35:09.559Z,2.63
2022-08-23T12:37:51.887Z,2.63
2022-08-23T12:40:35.967Z,2.60
2022-08-23T12:43:22.661Z,2.63
2022-08-23T12:45:54.022Z,2.40
2022-08-23T12:48:23.799Z,2.40
2022-08-23T12:51:03.029Z,2.80
2022-08-23T12:53:35.782Z,2.63
2022-08-23T12:56:09.072Z,3.08
2022-08-23T12:58:38.619Z,2.38
2022-08-23T13:01:17.043Z,2.63
2022-08-23T13:03:48.292Z,2.30
2022-08-23T13:06:21.599Z,2.70
2022-08-23T13:08:57.148Z,2.67
2022-08-23T13:11:28.091Z,2.85
2022-08-23T13:13:55.330Z,2.50
2022-08-23T13:16:37.068Z,2.33
2022-08-23T13:19:23.530Z,2.63
2022-08-23T13:22:10.191Z,2.63
2022-08-23T13:24:40.382Z,2.40
2022-08-23T13:27:13.227Z,2.70
2022-08-23T13:29:55.141Z,2.58
2022-08-23T13:32:42.078Z,2.30
2022-08-23T13:35:53.333Z,2.60
2022-08-23T13:38:41.527Z,2.60
2022-08-23T13:41:29.188Z,2.88
2022-08-23T13:43:55.762Z,2.50
2022-08-23T13:46:28.557Z,2.25
2022-08-23T13:48:58.494Z,2.60
2022-08-23T13:51:32.281Z,2.60
2022-08-23T13:54:07.860Z,3.22
2022-08-23T13:56:38.419Z,2.70
2022-08-23T13:59:31.593Z,2.70
2022-08-23T14:02:01.624Z,2.75
2022-08-23T14:04:28.227Z,3.50
2022-08-23T14:06:54.788Z,3.20
2022-08-23T14:09:21.224Z,2.95
2022-08-23T14:11:52.643Z,2.17
2022-08-23T14:14:19.101Z,2.70
2022-08-23T14:16:45.550Z,2.40
2022-08-23T14:19:16.560Z,2.50
2022-08-23T14:22:00.340Z,2.50
2022-08-23T14:24:27.982Z,2.50
2022-08-23T14:26:55.689Z,2.50
2022-08-23T14:29:24.047Z,2.63
2022-08-23T14:31:51.951Z,2.55
2022-08-23T14:34:18.898Z,2.83
2022-08-23T14:39:32.097Z,2.33
2022-08-23T14:41:59.006Z,2.80
2022-08-23T14:44:28.997Z,2.60
2022-08-23T14:46:59.311Z,2.30
2022-08-23T14:49:25.714Z,2.40
2022-08-23T14:51:52.166Z,3.25
2022-08-23T14:54:25.161Z,2.65
2022-08-23T14:56:51.840Z,2.58
2022-08-23T14:59:18.318Z,2.92
2022-08-23T15:01:46.364Z,3.20
2022-08-23T15:04:18.090Z,2.67
2022-08-23T15:07:06.839Z,2.45
2022-08-23T15:09:31.637Z,2.80
2022-08-23T15:12:57.594Z,2.60
2022-08-23T15:14:44.611Z,2.60
2022-08-23T15:17:11.192Z,2.65
2022-08-23T15:19:37.730Z,2.33
2022-08-23T15:22:21.704Z,2.22
2022-08-23T15:24:49.255Z,2.60
2022-08-23T15:27:16.570Z,2.58
2022-08-23T15:29:43.294Z,2.55
2022-08-23T15:32:12.421Z,3.13
2022-08-23T15:34:40.127Z,2.50
2022-08-23T15:37:13.255Z,2.50
2022-08-23T15:39:40.523Z,2.65
2022-08-23T15:42:07.223Z,2.60
2022-08-23T15:44:33.978Z,2.60
2022-08-23T15:47:20.057Z,2.75
2022-08-23T15:49:46.975Z,2.38
2022-08-23T15:52:13.620Z,2.50
2022-08-23T15:54:40.412Z,2.80
2022-08-23T15:57:07.381Z,2.45
2022-08-23T15:59:37.514Z,2.40
2022-08-23T16:02:04.868Z,2.50
2022-08-23T16:04:35.628Z,2.88
2022-08-23T16:07:06.028Z,2.22
2022-08-23T16:09:34.487Z,1.90
2022-08-23T16:12:02.388Z,2.42
2022-08-23T16:14:31.036Z,2.60
2022-08-23T16:16:58.484Z,2.35
2022-08-23T16:19:25.603Z,2.30
2022-08-23T16:21:54.527Z,2.30
2022-08-23T16:24:24.455Z,2.70
2022-08-23T16:26:51.712Z,2.72
2022-08-23T16:29:20.091Z,2.70
2022-08-23T16:31:47.328Z,2.45
2022-08-23T16:34:19.011Z,2.28
2022-08-23T16:36:50.211Z,2.35
2022-08-23T16:39:17.369Z,2.28
2022-08-23T16:41:43.815Z,2.30
2022-08-23T16:44:10.442Z,2.42
2022-08-23T16:46:41.239Z,2.55
2022-08-23T16:49:08.377Z,3.20
2022-08-23T16:51:34.828Z,2.70
2022-08-23T16:54:02.514Z,3.08
2022-08-23T16:56:33.967Z,2.40
2022-08-23T16:59:01.355Z,2.75
2022-08-23T17:01:28.616Z,3.05
2022-08-23T17:03:55.749Z,2.80
2022-08-23T17:06:22.341Z,2.95
2022-08-23T17:08:48.858Z,2.55
2022-08-23T17:11:18.305Z,2.28
2022-08-23T17:13:45.252Z,2.45
2022-08-23T17:16:11.771Z,2.63
2022-08-23T17:18:39.020Z,2.92
2022-08-23T17:21:05.731Z,2.83
2022-08-23T17:23:32.181Z,2.45
2022-08-23T17:25:59.660Z,2.22
2022-08-23T17:28:26.114Z,2.42
2022-08-23T17:30:52.590Z,2.30
2022-08-23T17:33:19.220Z,2.17
2022-08-23T17:35:46.458Z,2.08
2022-08-23T17:38:13.294Z,2.15
2022-08-23T17:40:41.137Z,2.40
2022-08-23T17:43:08.627Z,1.90
2022-08-23T17:45:46.769Z,1.88
2022-08-23T17:48:14.813Z,1.85
2022-08-23T17:50:41.918Z,2.20
2022-08-23T17:53:08.362Z,2.20
2022-08-23T17:55:35.901Z,2.00
2022-08-23T17:58:05.030Z,2.33
2022-08-23T18:00:33.776Z,2.05
2022-08-23T18:03:00.738Z,2.35
2022-08-23T18:05:30.242Z,2.20
2022-08-23T18:07:56.723Z,2.22
2022-08-23T18:10:25.320Z,2.30
2022-08-23T18:12:52.127Z,2.10
2022-08-23T18:15:18.712Z,2.20
2022-08-23T18:17:45.183Z,2.15
2022-08-23T18:20:12.530Z,2.20
2022-08-23T18:22:40.174Z,2.13
2022-08-23T18:25:09.092Z,2.38
2022-08-23T18:27:54.741Z,2.10
2022-08-23T18:30:21.602Z,2.38
2022-08-23T18:32:48.175Z,1.92
2022-08-23T18:35:18.074Z,1.58
2022-08-23T18:37:44.578Z,2.17
2022-08-23T18:40:12.113Z,2.30
2022-08-23T18:42:40.459Z,2.53
2022-08-23T18:45:14.897Z,2.28
2022-08-23T18:47:41.326Z,2.25
2022-08-23T18:50:10.099Z,2.60
2022-08-23T18:52:36.694Z,2.65
2022-08-23T18:55:04.027Z,2.35
2022-08-23T18:57:30.530Z,2.50
2022-08-23T18:59:57.970Z,2.70
2022-08-23T19:02:24.746Z,2.60
2022-08-23T19:04:53.174Z,2.35
2022-08-23T19:07:19.725Z,2.38
2022-08-23T19:09:46.254Z,2.30
2022-08-23T19:12:12.737Z,2.65
2022-08-23T19:14:39.150Z,2.00
2022-08-23T19:17:08.004Z,2.30
2022-08-23T19:19:34.995Z,2.13
2022-08-23T19:22:01.503Z,2.20
2022-08-23T19:24:28.746Z,2.13
2022-08-23T19:26:55.575Z,2.03
2022-08-23T19:29:22.063Z,2.55
2022-08-23T19:31:50.323Z,2.75
2022-08-23T19:34:20.803Z,2.38
2022-08-23T19:36:54.626Z,2.80
2022-08-23T19:39:27.324Z,2.72
2022-08-23T19:41:53.878Z,2.95
2022-08-23T19:44:21.163Z,2.63
2022-08-23T19:46:48.282Z,3.05
2022-08-23T19:49:15.111Z,3.22
2022-08-23T19:51:42.452Z,3.10
2022-08-23T19:54:11.676Z,3.05
2022-08-23T19:56:48.249Z,2.42
2022-08-23T19:59:21.264Z,3.20
2022-08-23T20:01:49.821Z,3.15
2022-08-23T20:04:18.150Z,2.80
2022-08-23T20:06:44.617Z,2.92
2022-08-23T20:09:11.785Z,2.92
2022-08-23T20:11:39.610Z,2.85
2022-08-23T20:14:06.845Z,2.92
2022-08-23T20:16:36.044Z,2.65
2022-08-23T20:19:04.048Z,3.30
2022-08-23T20:21:30.483Z,3.10
2022-08-23T20:24:03.572Z,3.20
2022-08-23T20:26:40.685Z,3.10
2022-08-23T20:29:17.079Z,3.10
2022-08-23T20:31:49.280Z,3.13
2022-08-23T20:34:15.779Z,3.20
2022-08-23T20:36:42.505Z,2.47
2022-08-23T20:39:09.186Z,2.42
2022-08-23T20:41:37.834Z,2.60
2022-08-23T20:44:05.764Z,2.80
2022-08-23T20:46:32.977Z,2.72
2022-08-23T20:48:59.501Z,2.78
2022-08-23T20:51:28.257Z,2.67
2022-08-23T20:53:55.936Z,2.75
2022-08-23T20:56:23.843Z,2.28
2022-08-23T20:58:51.056Z,2.67
2022-08-23T21:01:18.565Z,2.70
2022-08-23T21:03:45.441Z,2.58
2022-08-23T21:06:37.710Z,3.00
2022-08-23T21:09:04.928Z,2.70
2022-08-23T21:11:31.366Z,2.95
2022-08-23T21:13:58.674Z,3.00
2022-08-23T21:16:25.607Z,3.58
2022-08-23T21:18:55.351Z,2.95
2022-08-23T21:21:24.604Z,2.92
2022-08-23T21:23:51.054Z,3.17
2022-08-23T21:26:17.782Z,2.78
2022-08-23T21:28:44.513Z,2.88
2022-08-23T21:31:14.945Z,2.63
2022-08-23T21:33:42.547Z,3.03
2022-08-23T21:36:10.228Z,2.85
2022-08-23T21:38:37.307Z,2.72
2022-08-23T21:41:10.351Z,2.97
2022-08-23T21:43:38.816Z,3.33
2022-08-23T21:46:07.054Z,2.55
2022-08-23T21:48:33.939Z,2.90
2022-08-23T21:51:00.814Z,2.63
2022-08-23T21:53:27.401Z,3.05
2022-08-23T21:55:53.916Z,2.92
2022-08-23T21:58:20.588Z,2.75
2022-08-23T22:00:47.141Z,3.00
2022-08-23T22:03:13.745Z,2.90
2022-08-23T22:05:42.067Z,3.10
2022-08-23T22:08:09.487Z,2.78
2022-08-23T22:10:39.750Z,3.40
2022-08-23T22:13:14.794Z,2.92
2022-08-23T22:15:41.295Z,3.13
2022-08-23T22:18:07.971Z,3.20
2022-08-23T22:20:34.562Z,3.40
2022-08-23T22:23:01.293Z,3.92
2022-08-23T22:25:28.859Z,3.35
2022-08-23T22:27:55.393Z,3.17
2022-08-23T22:30:22.346Z,3.05
2022-08-23T22:32:49.978Z,2.83
2022-08-23T22:35:16.484Z,2.63
2022-08-23T22:38:03.561Z,3.35
2022-08-23T22:40:30.399Z,2.92
2022-08-23T22:42:56.902Z,3.10
2022-08-23T22:45:23.831Z,3.00
2022-08-23T22:47:50.562Z,3.50
2022-08-23T22:50:16.982Z,3.33
2022-08-23T22:52:43.533Z,2.83
2022-08-23T22:55:10.044Z,3.15
2022-08-23T22:57:38.063Z,2.88
2022-08-23T23:00:06.378Z,3.40
2022-08-23T23:02:37.362Z,3.00
2022-08-23T23:05:04.203Z,2.90
2022-08-23T23:07:49.396Z,2.70
2022-08-23T23:10:15.809Z,3.00
2022-08-23T23:12:42.373Z,3.03
2022-08-23T23:15:09.531Z,2.58
2022-08-23T23:17:35.977Z,2.85
2022-08-23T23:20:22.310Z,2.90
2022-08-23T23:22:48.660Z,2.92
2022-08-23T23:25:15.197Z,2.80
2022-08-23T23:27:41.584Z,3.00
2022-08-23T23:30:08.830Z,2.90
2022-08-23T23:32:35.350Z,2.40
2022-08-23T23:35:01.836Z,2.83
2022-08-23T23:37:28.314Z,2.90
2022-08-23T23:39:54.909Z,3.08
2022-08-23T23:42:21.446Z,2.85
2022-08-23T23:44:47.847Z,2.85
2022-08-23T23:47:14.377Z,2.80
2022-08-23T23:49:41.043Z,2.72
2022-08-23T23:52:07.519Z,2.70
2022-08-23T23:54:35.539Z,2.72
2022-08-23T23:57:03.468Z,2.65
2022-08-23T23:59:30.184Z,2.90
